Crane, MO

5:33 AM CDT on September 16, 2014 (GMT -0500)
Branson | Change Station
CLOSE
Current Station
Airport
Location: Branson,
Elevation: 1302 ft
Nearby Weather Stations

Elev 1302 ft 36.53 °N, 93.20 °W | Updated 18 minutes ago

Overcast
Overcast
66 °F
Feels Like 66 °F
N
5
Wind Variable Wind from NE

Today
High -- | Low -- °F
--% Chance of Precip.
Yesterday
High -- | Low -- °F
Precip. -- in
6:57 AM 7:20 PM
Waning Gibbous, 47% visible
Pressure 30.17 in
Visibility 1.8 miles
Clouds Overcast 200 ft
Dew Point 64 °F
Humidity 94%
Rainfall 0.00 in
Snow Depth Not available.
UV 0 out of 12
Pollen 4.60 out of 12
Air Quality Not available.
Flu Activity Not available.
METAR KBBG 161015Z AUTO 04004KT 1 3/4SM BR OVC002 19/18 A3017 RMK AO2

More Conditions Fewer Conditions

Pressure 30.17 in
Visibility 1.8 miles
Clouds Overcast 200 ft
Dew Point 64 °F
Humidity 94%
Rainfall 0.00 in
Snow Depth Not available.
UV 0 out of 12
Pollen 4.60 out of 12
Air Quality Not available.
Flu Activity Not available.
METAR KBBG 161015Z AUTO 04004KT 1 3/4SM BR OVC002 19/18 A3017 RMK AO2

More Conditions Fewer Conditions

10-Day Weather Forecast

Almanac

Astronomy

Sep. 16, 2014 Rise Set
Actual Time 6:57 AM CDT 7:20 PM CDT
Civil Twilight 6:31 AM CDT 7:46 PM CDT
Nautical Twilight 6:00 AM CDT 8:16 PM CDT
Astronomical Twilight 5:29 AM CDT 8:47 PM CDT
Moon 12:13 AM CDT 2:38 PM CDT
Length of Visible Light 13h 14m
Length of Day
12h 22m
Tomorrow will be 2m 19s shorter.
Waning Gibbous, 47% of the Moon is Illuminated
Today
Waning Gibbous
Sep 24
New
Oct 1
First Quarter
Oct 8
Full
Oct 15
Last Quarter

Today's Extremes

State Highs State Lows

Community

WunderPhotos

Upload Photos

1,753,720 photos uploaded!

WunderBlogs® & News

Nearby

Snow Depth

Station Depth Elevation
No new snow has been reported.

Earthquake Activity

City Distance Mag. Time & Date
No recent earthquake activity has been reported nearby.
Minimum magnitude displayed is 2.5.

Coastal Water Temperatures

Place Temperature
No Stations Reporting

Nearby Weather Stations